Time;durP1;ratioP1;P1;durP2;ratioP2;P2;SDS_P1;SDS_P2;PMS_P1;PMS_P2;Temp;Humidity;BMP_temperature;BMP_pressure;BME280_temperature;BME280_humidity;BME280_pressure;Samples;Min_cycle;Max_cycle;Signal;HPM_P1;HPM_P2
2024/03/15 00:01:44;;;;;;;;;;;;;;;10.78;69.65;97555.75;5063747;28;19928;-87
2024/03/15 00:04:12;;;;;;;;;;;;;;;10.80;69.60;97561.66;5059174;28;20358;-86
2024/03/15 00:06:39;;;;;;;;;;;;;;;10.78;69.75;97558.47;5058847;28;19981;-85
2024/03/15 00:09:10;;;;;;;;;;;;;;;10.78;69.49;97561.19;5055806;28;19967;-86
2024/03/15 00:11:38;;;;;;;;;;;;;;;10.70;69.76;97556.56;5062491;28;20566;-86
2024/03/15 00:14:06;;;;;;;;;;;;;;;10.67;69.95;97557.22;5072460;28;19932;-86
2024/03/15 00:16:34;;;;;;;;;;;;;;;10.74;69.65;97565.66;5078876;28;19947;-88
2024/03/15 00:19:02;;;;;;;;;;;;;;;10.63;69.89;97561.69;5091270;28;19940;-87
2024/03/15 00:21:30;;;;;;;;;;;;;;;10.61;69.92;97566.66;5077033;28;19959;-87
2024/03/15 00:23:59;;;;;;;;;;;;;;;10.60;70.13;97560.41;5063793;28;19928;-87
2024/03/15 00:26:26;;;;;;;;;;;;;;;10.69;69.70;97560.41;5060876;28;20442;-76
2024/03/15 00:28:58;;;;;;;;;;;;;;;10.66;69.88;97558.34;5067889;28;19927;-76
2024/03/15 00:31:25;;;;;;;;;;;;;;;10.66;69.63;97553.69;5064765;28;19932;-76
2024/03/15 00:33:53;;;;;;;;;;;;;;;10.57;70.09;97552.88;5079445;28;19927;-77
2024/03/15 00:36:21;;;;;;;;;;;;;;;10.59;70.14;97555.28;5071553;28;19935;-75
2024/03/15 00:38:52;;;;;;;;;;;;;;;10.60;69.82;97551.44;5084235;28;20405;-76
2024/03/15 00:41:20;;;;;;;;;;;;;;;10.52;70.14;97544.09;5073906;28;20015;-76
2024/03/15 00:43:48;;;;;;;;;;;;;;;10.52;70.08;97552.25;5057372;28;20490;-76
2024/03/15 00:46:17;;;;;;;;;;;;;;;10.48;70.68;97544.72;5071812;28;19977;-76
2024/03/15 00:48:45;;;;;;;;;;;;;;;10.52;70.36;97547.63;5071859;28;19932;-76
2024/03/15 00:51:16;;;;;;;;;;;;;;;10.53;70.12;97546.50;5074886;28;19954;-76
2024/03/15 00:53:43;;;;;;;;;;;;;;;10.51;70.07;97547.94;5071303;28;20028;-77
2024/03/15 00:56:11;;;;;;;;;;;;;;;10.52;70.16;97544.91;5076161;28;19932;-76
2024/03/15 00:58:39;;;;;;;;;;;;;;;10.53;70.34;97546.50;5051879;28;19932;-75
2024/03/15 01:01:07;;;;;;;;;;;;;;;10.51;69.90;97540.59;5071542;28;20337;-76
2024/03/15 01:03:35;;;;;;;;;;;;;;;10.49;70.29;97540.91;5073664;28;19968;-76
2024/03/15 01:06:02;;;;;;;;;;;;;;;10.48;70.13;97541.22;5059855;28;20056;-76
2024/03/15 01:08:31;;;;;;;;;;;;;;;10.45;70.32;97541.88;5074008;28;19977;-76
2024/03/15 01:10:59;;;;;;;;;;;;;;;10.40;70.74;97536.59;5069764;28;19933;-76
2024/03/15 01:13:28;;;;;;;;;;;;;;;10.39;71.06;97540.44;5075103;28;19924;-76
2024/03/15 01:15:55;;;;;;;;;;;;;;;10.42;70.25;97542.50;5071671;28;20020;-76
2024/03/15 01:18:23;;;;;;;;;;;;;;;10.37;70.58;97540.72;5073176;28;19927;-75
2024/03/15 01:20:51;;;;;;;;;;;;;;;10.42;70.59;97535.16;5050644;28;19924;-76
2024/03/15 01:23:19;;;;;;;;;;;;;;;10.36;70.77;97539.16;5070967;28;20055;-76
2024/03/15 01:25:47;;;;;;;;;;;;;;;10.34;70.61;97544.09;5064950;28;20034;-76
2024/03/15 01:28:16;;;;;;;;;;;;;;;10.32;70.62;97538.19;5075548;28;20427;-76
2024/03/15 01:30:45;;;;;;;;;;;;;;;10.32;70.65;97535.47;5068325;28;20344;-75
2024/03/15 01:33:14;;;;;;;;;;;;;;;10.27;70.28;97524.75;5069471;28;20013;-76
2024/03/15 01:35:42;;;;;;;;;;;;;;;10.32;70.43;97530.03;5058983;28;19934;-76
2024/03/15 01:38:10;;;;;;;;;;;;;;;10.27;70.41;97523.97;5083884;28;19924;-82
2024/03/15 01:40:38;;;;;;;;;;;;;;;10.20;70.84;97527.13;5070493;28;20541;-78
2024/03/15 01:43:05;;;;;;;;;;;;;;;10.21;70.78;97518.66;5080734;28;19998;-78
2024/03/15 01:45:34;;;;;;;;;;;;;;;10.21;70.95;97520.56;5065347;28;20055;-77
2024/03/15 01:48:03;;;;;;;;;;;;;;;10.22;70.68;97524.88;5072649;28;20442;-77
2024/03/15 01:50:31;;;;;;;;;;;;;;;10.23;70.77;97523.78;5078117;28;19988;-77
2024/03/15 01:52:59;;;;;;;;;;;;;;;10.22;71.21;97524.88;5053017;28;20015;-78
2024/03/15 01:55:27;;;;;;;;;;;;;;;10.16;71.00;97524.22;5069806;28;19935;-77
2024/03/15 01:58:00;;;;;;;;;;;;;;;10.17;71.16;97522.31;5060699;28;20379;-78
2024/03/15 02:00:27;;;;;;;;;;;;;;;10.22;71.23;97522.16;5067448;28;19924;-78
2024/03/15 02:02:56;;;;;;;;;;;;;;;10.14;71.46;97514.81;5058951;28;19928;-78
2024/03/15 02:05:24;;;;;;;;;;;;;;;10.08;71.47;97513.38;5053779;28;19929;-78
2024/03/15 02:07:52;;;;;;;;;;;;;;;10.07;71.73;97507.16;5071523;28;19946;-77
2024/03/15 02:10:20;;;;;;;;;;;;;;;10.09;71.33;97510.34;5069522;28;20019;-78
2024/03/15 02:12:49;;;;;;;;;;;;;;;10.04;71.49;97507.00;5068187;28;19928;-78
2024/03/15 02:15:17;;;;;;;;;;;;;;;10.09;71.45;97517.69;5062898;28;19936;-78
2024/03/15 02:17:47;;;;;;;;;;;;;;;10.13;71.49;97510.53;5076217;28;20337;-79
2024/03/15 02:20:18;;;;;;;;;;;;;;;10.02;71.89;97514.66;5068421;28;19931;-78
2024/03/15 02:22:47;;;;;;;;;;;;;;;9.90;72.20;97521.47;5074993;28;19954;-77
2024/03/15 02:25:16;;;;;;;;;;;;;;;9.87;72.40;97516.69;5080467;28;20614;-78
2024/03/15 02:27:44;;;;;;;;;;;;;;;9.85;72.32;97516.19;5042391;28;19928;-78
2024/03/15 02:30:12;;;;;;;;;;;;;;;9.92;72.18;97521.19;5050608;28;19924;-77
2024/03/15 02:32:40;;;;;;;;;;;;;;;9.93;72.10;97512.72;5074898;28;19927;-77
2024/03/15 02:35:08;;;;;;;;;;;;;;;9.90;72.08;97520.69;5051340;28;19939;-78
2024/03/15 02:37:47;;;;;;;;;;;;;;;9.87;72.33;97526.75;5070213;28;20372;-77
2024/03/15 02:40:15;;;;;;;;;;;;;;;9.94;72.23;97519.72;5079605;28;19935;-76
2024/03/15 02:42:43;;;;;;;;;;;;;;;9.89;72.54;97522.59;5074443;28;20015;-77
2024/03/15 02:45:11;;;;;;;;;;;;;;;9.89;72.29;97517.16;5054692;28;20384;-81
2024/03/15 02:47:39;;;;;;;;;;;;;;;9.82;72.56;97522.28;5076034;28;19927;-81
2024/03/15 02:50:07;;;;;;;;;;;;;;;9.81;72.53;97520.69;5068247;28;20311;-79
2024/03/15 02:52:35;;;;;;;;;;;;;;;9.80;72.70;97526.41;5076387;28;19924;-80
2024/03/15 02:55:03;;;;;;;;;;;;;;;9.77;72.63;97527.03;5073016;28;21715;-79
2024/03/15 02:57:31;;;;;;;;;;;;;;;9.76;72.82;97518.09;5071758;28;19928;-80
2024/03/15 03:00:00;;;;;;;;;;;;;;;9.79;72.66;97525.59;5071523;28;19928;-80
2024/03/15 03:02:33;;;;;;;;;;;;;;;9.86;72.62;97528.66;5084844;28;19971;-80
2024/03/15 03:05:01;;;;;;;;;;;;;;;9.90;72.35;97526.91;5078289;28;19923;-80
2024/03/15 03:07:29;;;;;;;;;;;;;;;9.88;72.40;97531.84;5069488;28;19928;-80
2024/03/15 03:09:56;;;;;;;;;;;;;;;9.78;73.00;97529.44;5063311;28;19949;-80
2024/03/15 03:12:24;;;;;;;;;;;;;;;9.70;73.25;97531.03;5081128;28;19970;-80
2024/03/15 03:14:52;;;;;;;;;;;;;;;9.74;73.04;97536.59;5082242;28;20187;-80
2024/03/15 03:17:20;;;;;;;;;;;;;;;9.74;73.12;97541.22;5058482;28;19924;-80
2024/03/15 03:19:48;;;;;;;;;;;;;;;9.75;73.07;97532.78;5076752;28;19932;-80
2024/03/15 03:22:17;;;;;;;;;;;;;;;9.80;72.84;97529.94;5060699;28;19963;-80
2024/03/15 03:24:46;;;;;;;;;;;;;;;9.79;72.74;97532.94;5074055;28;19928;-80
2024/03/15 03:27:14;;;;;;;;;;;;;;;9.70;73.21;97532.94;5058672;28;19927;-80
2024/03/15 03:29:42;;;;;;;;;;;;;;;9.68;73.30;97527.00;5061356;28;19977;-82
2024/03/15 03:32:10;;;;;;;;;;;;;;;9.65;73.43;97533.09;5074337;28;19977;-80
2024/03/15 03:34:39;;;;;;;;;;;;;;;9.64;73.48;97531.47;5080405;28;19932;-79
2024/03/15 03:37:07;;;;;;;;;;;;;;;9.63;73.26;97540.72;5070294;28;19924;-80
2024/03/15 03:39:37;;;;;;;;;;;;;;;9.63;73.17;97538.78;5064498;28;20958;-79
2024/03/15 03:42:05;;;;;;;;;;;;;;;9.70;73.22;97544.59;5070702;28;19938;-80
2024/03/15 03:44:36;;;;;;;;;;;;;;;9.70;73.33;97544.59;5071563;28;20033;-80
2024/03/15 03:47:04;;;;;;;;;;;;;;;9.70;73.08;97549.22;5076060;28;19946;-80
2024/03/15 03:49:32;;;;;;;;;;;;;;;9.64;73.34;97540.41;5076624;28;19934;-80
2024/03/15 03:52:00;;;;;;;;;;;;;;;9.73;73.06;97550.47;5080656;28;19924;-80
2024/03/15 03:54:30;;;;;;;;;;;;;;;9.69;73.18;97550.31;5074509;28;19989;-78
2024/03/15 03:56:58;;;;;;;;;;;;;;;9.73;72.89;97559.41;5080288;28;19932;-87
2024/03/15 03:59:28;;;;;;;;;;;;;;;9.72;73.06;97552.41;5051661;28;20211;-86
2024/03/15 04:01:56;;;;;;;;;;;;;;;9.60;73.21;97546.78;5073059;28;19974;-86
2024/03/15 04:04:24;;;;;;;;;;;;;;;9.59;73.46;97556.03;5073200;28;19930;-86
2024/03/15 04:06:52;;;;;;;;;;;;;;;9.59;73.37;97550.63;5093626;28;19924;-88
2024/03/15 04:09:21;;;;;;;;;;;;;;;9.57;73.65;97541.97;5083441;28;19923;-86
2024/03/15 04:11:49;;;;;;;;;;;;;;;9.62;73.64;97544.53;5058875;28;20374;-85
2024/03/15 04:14:17;;;;;;;;;;;;;;;9.65;73.48;97549.34;5062961;28;19925;-86
2024/03/15 04:16:45;;;;;;;;;;;;;;;9.68;73.43;97549.50;5065669;28;19934;-85
2024/03/15 04:19:13;;;;;;;;;;;;;;;9.61;73.45;97548.38;5049384;28;20035;-86
2024/03/15 04:21:43;;;;;;;;;;;;;;;9.67;73.25;97538.97;5061893;28;19928;-85
2024/03/15 04:24:11;;;;;;;;;;;;;;;9.62;73.23;97547.25;5059204;28;20031;-86
2024/03/15 04:26:39;;;;;;;;;;;;;;;9.62;73.14;97544.53;5062598;28;19971;-86
2024/03/15 04:29:07;;;;;;;;;;;;;;;9.62;73.16;97539.13;5070061;28;19945;-86
2024/03/15 04:31:35;;;;;;;;;;;;;;;9.65;73.05;97538.50;5075410;28;19924;-85
2024/03/15 04:34:03;;;;;;;;;;;;;;;9.57;72.86;97541.97;5078973;28;19924;-86
2024/03/15 04:36:31;;;;;;;;;;;;;;;9.53;73.14;97546.41;5053167;28;19936;-86
2024/03/15 04:39:00;;;;;;;;;;;;;;;9.54;73.05;97545.31;5054616;28;19935;-85
2024/03/15 04:41:28;;;;;;;;;;;;;;;9.56;73.02;97540.38;5079420;28;19928;-86
2024/03/15 04:43:57;;;;;;;;;;;;;;;9.51;73.08;97537.81;5066794;28;19924;-86
2024/03/15 04:46:25;;;;;;;;;;;;;;;9.47;73.30;97547.66;5061762;28;19924;-86
2024/03/15 04:48:53;;;;;;;;;;;;;;;9.52;73.20;97539.41;5071351;28;19947;-86
2024/03/15 04:51:21;;;;;;;;;;;;;;;9.49;72.91;97545.47;5050386;28;19959;-85
2024/03/15 04:53:50;;;;;;;;;;;;;;;9.39;73.40;97544.63;5075007;28;20475;-85
2024/03/15 04:56:18;;;;;;;;;;;;;;;9.45;73.38;97545.28;5057205;28;19936;-87
2024/03/15 04:58:47;;;;;;;;;;;;;;;9.41;73.23;97545.09;5062459;28;19932;-87
2024/03/15 05:01:15;;;;;;;;;;;;;;;9.40;73.56;97548.13;5069281;28;19962;-87
2024/03/15 05:03:43;;;;;;;;;;;;;;;9.41;73.42;97550.50;5076331;28;19931;-87
2024/03/15 05:06:12;;;;;;;;;;;;;;;9.41;73.42;97547.81;5057554;28;19950;-74
2024/03/15 05:08:43;;;;;;;;;;;;;;;9.44;73.50;97549.91;5073814;28;20367;-76
2024/03/15 05:11:18;;;;;;;;;;;;;;;9.41;73.62;97544.28;5057322;28;19932;-75
2024/03/15 05:13:46;;;;;;;;;;;;;;;9.39;73.83;97546.53;5057146;28;20044;-76
2024/03/15 05:16:14;;;;;;;;;;;;;;;9.32;73.86;97554.28;5072191;28;19930;-76
2024/03/15 05:18:42;;;;;;;;;;;;;;;9.37;73.57;97548.75;5066626;28;19935;-76
2024/03/15 05:21:09;;;;;;;;;;;;;;;9.30;73.74;97551.91;5062053;28;19972;-74
2024/03/15 05:23:38;;;;;;;;;;;;;;;9.33;73.45;97553.22;5059101;28;19975;-73
2024/03/15 05:26:06;;;;;;;;;;;;;;;9.30;73.80;97553.81;5071486;28;19935;-77
2024/03/15 05:28:34;;;;;;;;;;;;;;;9.31;73.57;97553.50;5065452;28;19927;-76
2024/03/15 05:31:03;;;;;;;;;;;;;;;9.28;73.48;97553.34;5083206;28;19950;-76
2024/03/15 05:33:35;;;;;;;;;;;;;;;9.28;73.34;97556.06;5090983;28;19930;-76
2024/03/15 05:36:03;;;;;;;;;;;;;;;9.25;73.56;97560.16;5068452;28;19928;-76
2024/03/15 05:38:33;;;;;;;;;;;;;;;9.21;73.73;97552.97;5059850;28;20576;-73
2024/03/15 05:41:01;;;;;;;;;;;;;;;9.26;73.47;97558.25;5061419;28;19983;-75
2024/03/15 05:43:29;;;;;;;;;;;;;;;9.24;73.23;97555.88;5071243;28;19981;-76
2024/03/15 05:45:57;;;;;;;;;;;;;;;9.21;73.45;97561.88;5065647;28;19932;-78
2024/03/15 05:48:25;;;;;;;;;;;;;;;9.20;73.55;97554.88;5058997;28;20285;-75
2024/03/15 05:50:53;;;;;;;;;;;;;;;9.22;73.45;97558.09;5057577;28;19929;-75
2024/03/15 05:53:20;;;;;;;;;;;;;;;9.23;73.70;97561.59;5057306;28;19925;-76
2024/03/15 05:55:48;;;;;;;;;;;;;;;9.25;73.40;97562.88;5066067;28;19924;-76
2024/03/15 05:58:16;;;;;;;;;;;;;;;9.25;73.51;97570.22;5060934;28;20673;-76
2024/03/15 06:00:44;;;;;;;;;;;;;;;9.19;73.65;97567.63;5059196;28;19931;-77
2024/03/15 06:03:12;;;;;;;;;;;;;;;9.21;73.68;97572.72;5061661;28;19995;-83
2024/03/15 06:05:39;;;;;;;;;;;;;;;9.27;73.52;97571.53;5054411;28;20125;-76
2024/03/15 06:08:10;;;;;;;;;;;;;;;9.24;73.28;97572.13;5061280;28;19938;-76
2024/03/15 06:10:38;;;;;;;;;;;;;;;9.29;73.41;97571.19;5055743;28;19929;-77
2024/03/15 06:13:06;;;;;;;;;;;;;;;9.26;73.39;97571.81;5071827;28;19943;-76
2024/03/15 06:15:37;;;;;;;;;;;;;;;9.25;73.45;97578.34;5070319;28;19924;-76
2024/03/15 06:18:06;;;;;;;;;;;;;;;9.27;73.43;97576.94;5054427;28;19978;-77
2024/03/15 06:20:34;;;;;;;;;;;;;;;9.25;73.40;97579.13;5088926;28;19924;-76
2024/03/15 06:23:02;;;;;;;;;;;;;;;9.28;73.52;97578.53;5072141;28;19928;-76
2024/03/15 06:25:30;;;;;;;;;;;;;;;9.30;73.60;97581.72;5079673;28;19924;-75
2024/03/15 06:28:06;;;;;;;;;;;;;;;9.23;74.05;97577.88;5078774;28;20383;-76
2024/03/15 06:30:34;;;;;;;;;;;;;;;9.31;73.94;97577.91;5078893;28;19923;-77
2024/03/15 06:33:03;;;;;;;;;;;;;;;9.40;73.87;97580.66;5074700;28;19950;-76
2024/03/15 06:35:31;;;;;;;;;;;;;;;9.42;73.89;97581.13;5052566;28;19928;-76
2024/03/15 06:38:10;;;;;;;;;;;;;;;9.44;73.80;97581.66;5054681;28;19924;-76
2024/03/15 06:40:55;;;;;;;;;;;;;;;9.49;73.69;97589.66;5053293;28;19928;-76
2024/03/15 06:43:39;;;;;;;;;;;;;;;9.59;73.53;97588.59;5054763;28;19936;-76
2024/03/15 06:46:09;;;;;;;;;;;;;;;9.65;73.36;97596.25;5057567;28;19928;-75
2024/03/15 06:48:54;;;;;;;;;;;;;;;9.70;73.25;97593.41;5053112;28;19930;-76
2024/03/15 06:54:09;;;;;;;;;;;;;;;9.81;73.07;97598.56;5066364;28;19936;-76
2024/03/15 06:56:37;;;;;;;;;;;;;;;9.86;73.02;97601.13;5071987;28;19970;-76
2024/03/15 06:59:05;;;;;;;;;;;;;;;9.92;72.94;97597.16;5071682;28;19935;-76
2024/03/15 07:01:34;;;;;;;;;;;;;;;9.95;72.91;97599.22;5058763;28;19928;-76
2024/03/15 07:04:02;;;;;;;;;;;;;;;9.96;73.11;97604.38;5035591;28;19933;-76
2024/03/15 07:06:30;;;;;;;;;;;;;;;10.03;72.91;97603.09;5052096;28;19924;-76
2024/03/15 07:08:58;;;;;;;;;;;;;;;10.01;72.89;97599.88;5051634;28;20020;-74
2024/03/15 07:11:33;;;;;;;;;;;;;;;10.04;72.76;97604.69;5067321;28;20447;-75
2024/03/15 07:14:02;;;;;;;;;;;;;;;10.06;72.79;97603.25;5061162;28;20514;-76
2024/03/15 07:16:31;;;;;;;;;;;;;;;10.07;72.84;97604.06;5071238;28;19928;-76
2024/03/15 07:19:00;;;;;;;;;;;;;;;10.11;72.86;97599.59;5057566;28;20410;-76
2024/03/15 07:21:27;;;;;;;;;;;;;;;10.11;72.89;97596.88;5071698;28;19927;-76
2024/03/15 07:23:55;;;;;;;;;;;;;;;10.16;72.83;97607.59;5052306;28;19977;-76
2024/03/15 07:26:23;;;;;;;;;;;;;;;10.18;72.83;97610.81;5052992;28;19942;-79
2024/03/15 07:28:51;;;;;;;;;;;;;;;10.14;72.91;97609.84;5085028;28;20280;-79
2024/03/15 07:31:22;;;;;;;;;;;;;;;10.24;72.65;97609.56;5059249;28;19932;-79
2024/03/15 07:33:51;;;;;;;;;;;;;;;10.24;72.71;97612.28;5078974;28;19928;-79
2024/03/15 07:36:20;;;;;;;;;;;;;;;10.31;72.58;97612.59;5066997;28;20038;-79
2024/03/15 07:38:51;;;;;;;;;;;;;;;10.35;72.66;97610.06;5056696;28;19929;-79
2024/03/15 07:41:21;;;;;;;;;;;;;;;10.39;72.75;97614.56;5048911;28;19924;-80
2024/03/15 07:43:50;;;;;;;;;;;;;;;10.43;72.62;97623.66;5074611;28;19935;-80
2024/03/15 07:46:18;;;;;;;;;;;;;;;10.48;72.44;97615.34;5045828;28;19994;-80
2024/03/15 07:48:46;;;;;;;;;;;;;;;10.56;72.35;97621.94;5070374;28;20304;-80
2024/03/15 07:51:14;;;;;;;;;;;;;;;10.62;72.53;97617.13;5078691;28;19959;-79
2024/03/15 07:53:46;;;;;;;;;;;;;;;10.67;72.36;97623.22;5072929;28;20403;-79
2024/03/15 07:56:14;;;;;;;;;;;;;;;10.75;72.14;97624.31;5089075;28;19931;-79
2024/03/15 07:58:41;;;;;;;;;;;;;;;10.76;72.07;97617.78;5057545;28;19977;-79
2024/03/15 08:01:09;;;;;;;;;;;;;;;10.85;71.93;97617.78;5044857;28;19951;-79
2024/03/15 08:03:37;;;;;;;;;;;;;;;10.92;71.60;97624.34;5080765;28;20042;-79
2024/03/15 08:06:06;;;;;;;;;;;;;;;10.99;71.37;97618.41;5076765;28;19966;-79
2024/03/15 08:08:35;;;;;;;;;;;;;;;11.01;71.53;97621.59;5083543;28;20284;-79
2024/03/15 08:11:03;;;;;;;;;;;;;;;11.07;71.00;97619.53;5076217;28;19924;-79
2024/03/15 08:13:34;;;;;;;;;;;;;;;11.13;70.84;97620.94;5074949;28;19932;-79
2024/03/15 08:16:18;;;;;;;;;;;;;;;11.14;70.77;97619.84;5055436;28;19928;-79
2024/03/15 08:18:47;;;;;;;;;;;;;;;11.21;70.49;97623.66;5085735;28;20334;-80
2024/03/15 08:21:15;;;;;;;;;;;;;;;11.24;70.27;97624.97;5093129;28;20007;-79
2024/03/15 08:23:44;;;;;;;;;;;;;;;11.23;70.58;97634.22;5077374;28;19938;-79
2024/03/15 08:26:12;;;;;;;;;;;;;;;11.27;70.16;97630.53;5072446;28;19935;-79
2024/03/15 08:28:40;;;;;;;;;;;;;;;11.37;69.93;97631.31;5081585;28;19924;-79
2024/03/15 08:31:08;;;;;;;;;;;;;;;11.36;68.94;97630.53;5095410;28;19971;-80
2024/03/15 08:33:36;;;;;;;;;;;;;;;11.39;69.45;97627.16;5074428;28;19940;-79
2024/03/15 08:36:06;;;;;;;;;;;;;;;11.47;69.52;97636.44;5060610;28;19932;-78
2024/03/15 08:38:36;;;;;;;;;;;;;;;11.57;69.57;97632.56;5074731;28;19928;-78
2024/03/15 08:41:05;;;;;;;;;;;;;;;11.67;68.91;97637.66;5062807;28;19955;-79
2024/03/15 08:43:34;;;;;;;;;;;;;;;11.76;68.27;97633.75;5075237;28;19924;-78
2024/03/15 08:46:02;;;;;;;;;;;;;;;11.91;68.31;97620.78;5077008;28;20019;-78
2024/03/15 08:48:30;;;;;;;;;;;;;;;12.01;67.10;97621.22;5087721;28;19928;-79
2024/03/15 08:50:58;;;;;;;;;;;;;;;12.14;67.54;97624.03;5057517;28;19925;-78
2024/03/15 08:53:26;;;;;;;;;;;;;;;12.22;67.14;97621.28;5054289;28;19936;-79
2024/03/15 08:55:57;;;;;;;;;;;;;;;12.34;67.09;97628.72;5073511;28;19925;-79
2024/03/15 08:58:26;;;;;;;;;;;;;;;12.41;66.20;97626.31;5069090;28;19924;-78
2024/03/15 09:00:55;;;;;;;;;;;;;;;12.52;65.46;97629.44;5065431;28;19978;-78
2024/03/15 09:03:23;;;;;;;;;;;;;;;12.60;63.68;97636.75;5046582;28;20018;-79
2024/03/15 09:05:51;;;;;;;;;;;;;;;12.68;63.78;97626.94;5081186;28;19967;-78
2024/03/15 09:08:20;;;;;;;;;;;;;;;12.76;63.62;97629.56;5075101;28;19927;-79
2024/03/15 09:10:48;;;;;;;;;;;;;;;12.83;62.38;97632.56;5092150;28;19924;-80
2024/03/15 09:13:18;;;;;;;;;;;;;;;12.92;62.00;97627.06;5064898;28;19932;-78
2024/03/15 09:15:46;;;;;;;;;;;;;;;13.01;62.11;97635.16;5057188;28;19978;-78
2024/03/15 09:18:13;;;;;;;;;;;;;;;13.10;61.42;97628.50;5067029;28;19924;-78
2024/03/15 09:20:44;;;;;;;;;;;;;;;13.18;60.71;97634.22;5071355;28;20385;-78
2024/03/15 09:23:12;;;;;;;;;;;;;;;13.22;60.36;97630.53;5068902;28;19995;-78
2024/03/15 09:25:42;;;;;;;;;;;;;;;13.31;60.37;97638.59;5075198;28;19931;-84
2024/03/15 09:28:11;;;;;;;;;;;;;;;13.36;60.22;97636.47;5059681;28;19962;-78
2024/03/15 09:30:49;;;;;;;;;;;;;;;13.41;59.81;97640.13;5056300;28;19924;-79
2024/03/15 09:33:34;;;;;;;;;;;;;;;13.50;59.88;97630.72;5058029;28;19924;-79
2024/03/15 09:36:04;;;;;;;;;;;;;;;13.57;59.85;97633.69;5053167;28;19964;-80
2024/03/15 09:38:32;;;;;;;;;;;;;;;13.64;59.63;97638.63;5061143;28;20031;-78
2024/03/15 09:41:00;;;;;;;;;;;;;;;13.70;59.85;97644.66;5067394;28;19936;-79
2024/03/15 09:43:29;;;;;;;;;;;;;;;13.72;59.57;97634.19;5062112;28;20567;-79
2024/03/15 09:45:57;;;;;;;;;;;;;;;13.76;59.32;97632.38;5072227;28;19959;-79
2024/03/15 09:48:29;;;;;;;;;;;;;;;13.82;59.60;97636.47;5045338;28;20399;-80
2024/03/15 09:50:59;;;;;;;;;;;;;;;13.87;59.36;97631.59;5067390;28;19924;-80
2024/03/15 09:53:27;;;;;;;;;;;;;;;13.89;59.08;97628.50;5052144;28;19932;-79
2024/03/15 09:55:57;;;;;;;;;;;;;;;13.96;59.12;97626.03;5048072;28;23351;-80
2024/03/15 09:58:24;;;;;;;;;;;;;;;14.01;58.98;97617.63;5053838;28;19985;-80
2024/03/15 10:00:52;;;;;;;;;;;;;;;14.04;58.33;97622.38;5067244;28;20171;-79
2024/03/15 10:03:20;;;;;;;;;;;;;;;14.01;58.30;97609.44;5070539;28;20462;-80
2024/03/15 10:05:48;;;;;;;;;;;;;;;14.04;58.67;97624.31;5074498;28;19935;-80
2024/03/15 10:08:17;;;;;;;;;;;;;;;14.00;58.39;97629.66;5071752;28;19924;-79
2024/03/15 10:10:46;;;;;;;;;;;;;;;14.00;58.48;97628.88;5070236;28;19924;-79
2024/03/15 10:13:14;;;;;;;;;;;;;;;14.00;58.66;97629.66;5056914;28;19931;-80
2024/03/15 10:15:46;;;;;;;;;;;;;;;14.11;58.91;97627.28;5048746;28;19928;-80
2024/03/15 10:18:15;;;;;;;;;;;;;;;14.20;58.49;97636.16;5052942;28;19956;-80
2024/03/15 10:20:46;;;;;;;;;;;;;;;14.29;57.80;97630.59;5056777;28;19932;-79
2024/03/15 10:23:14;;;;;;;;;;;;;;;14.37;58.04;97618.72;5047392;28;19935;-80
2024/03/15 10:25:42;;;;;;;;;;;;;;;14.46;57.67;97624.88;5061840;28;20136;-80
2024/03/15 10:28:10;;;;;;;;;;;;;;;14.53;57.05;97621.59;5072697;28;19931;-80
2024/03/15 10:30:38;;;;;;;;;;;;;;;14.58;57.54;97630.34;5056355;28;19931;-80
2024/03/15 10:33:08;;;;;;;;;;;;;;;14.66;57.21;97629.44;5053293;28;20027;-80
2024/03/15 10:35:36;;;;;;;;;;;;;;;14.72;57.02;97630.00;5060022;28;19939;-80
2024/03/15 10:38:04;;;;;;;;;;;;;;;14.79;56.60;97626.69;5052263;28;19925;-79
2024/03/15 10:40:33;;;;;;;;;;;;;;;14.83;56.72;97622.13;5052587;28;19924;-79
2024/03/15 10:43:02;;;;;;;;;;;;;;;14.90;56.42;97620.38;5036776;28;19959;-80
2024/03/15 10:45:30;;;;;;;;;;;;;;;14.94;56.68;97617.75;5053482;28;19953;-80
2024/03/15 10:47:58;;;;;;;;;;;;;;;14.99;56.32;97614.78;5066771;28;20769;-80
2024/03/15 10:50:27;;;;;;;;;;;;;;;15.04;56.45;97613.75;5073235;28;19936;-81
2024/03/15 10:52:55;;;;;;;;;;;;;;;15.15;56.54;97621.09;5075788;28;19924;-80
2024/03/15 10:55:24;;;;;;;;;;;;;;;15.33;56.05;97627.06;5073158;28;19928;-80
2024/03/15 10:57:52;;;;;;;;;;;;;;;15.41;55.21;97633.53;5056912;28;20533;-81
2024/03/15 11:00:20;;;;;;;;;;;;;;;15.37;54.74;97619.75;5056298;28;20450;-80
2024/03/15 11:02:48;;;;;;;;;;;;;;;15.37;54.66;97619.75;5037007;28;19951;-81
2024/03/15 11:05:18;;;;;;;;;;;;;;;15.43;54.53;97631.22;5056487;28;20345;-79
2024/03/15 11:07:46;;;;;;;;;;;;;;;15.48;54.07;97622.78;5056122;28;20456;-80
2024/03/15 11:10:14;;;;;;;;;;;;;;;15.57;53.92;97617.94;5073025;28;20019;-79
2024/03/15 11:12:42;;;;;;;;;;;;;;;15.59;53.15;97615.63;5068087;28;19938;-81
2024/03/15 11:15:11;;;;;;;;;;;;;;;15.61;53.39;97623.53;5076574;28;19930;-80
2024/03/15 11:17:42;;;;;;;;;;;;;;;15.60;53.17;97617.22;5071243;28;19929;-80
2024/03/15 11:20:13;;;;;;;;;;;;;;;15.66;53.22;97613.13;5068757;28;19928;-81
2024/03/15 11:22:41;;;;;;;;;;;;;;;15.72;53.77;97627.34;5082171;28;19929;-81
2024/03/15 11:25:15;;;;;;;;;;;;;;;15.73;53.82;97622.69;5075104;28;19963;-81
2024/03/15 11:27:57;;;;;;;;;;;;;;;15.76;53.85;97628.22;5068676;28;19925;-81
2024/03/15 11:30:28;;;;;;;;;;;;;;;15.74;53.65;97624.25;5077266;28;20379;-80
2024/03/15 11:32:57;;;;;;;;;;;;;;;15.71;53.50;97621.09;5055412;28;19931;-80
2024/03/15 11:35:25;;;;;;;;;;;;;;;15.76;53.55;97616.47;5061140;28;19928;-80
2024/03/15 11:37:55;;;;;;;;;;;;;;;15.79;53.93;97621.25;5058971;28;19928;-81
2024/03/15 11:40:25;;;;;;;;;;;;;;;15.82;53.62;97623.28;5059214;28;19939;-82
2024/03/15 11:42:53;;;;;;;;;;;;;;;15.79;52.81;97621.25;5068401;28;19928;-83
2024/03/15 11:45:29;;;;;;;;;;;;;;;15.76;52.65;97627.44;5064554;28;19935;-81
2024/03/15 11:47:57;;;;;;;;;;;;;;;15.68;52.85;97624.50;5058837;28;19927;-81
2024/03/15 11:50:26;;;;;;;;;;;;;;;15.67;52.79;97633.88;5056835;28;19924;-81
2024/03/15 11:52:57;;;;;;;;;;;;;;;15.64;52.99;97637.31;5039432;28;19968;-81
2024/03/15 11:55:25;;;;;;;;;;;;;;;15.65;52.76;97629.88;5060281;28;19973;-81
2024/03/15 11:57:53;;;;;;;;;;;;;;;15.56;52.82;97618.28;5075497;28;19924;-81
2024/03/15 12:00:23;;;;;;;;;;;;;;;15.53;53.04;97628.00;5056602;28;20014;-81
2024/03/15 12:02:52;;;;;;;;;;;;;;;15.54;53.16;97626.84;5058298;28;20338;-80
2024/03/15 12:05:20;;;;;;;;;;;;;;;15.58;53.05;97616.78;5053175;28;19924;-86
2024/03/15 12:07:49;;;;;;;;;;;;;;;15.62;52.82;97622.38;5054045;28;19924;-88
2024/03/15 12:10:17;;;;;;;;;;;;;;;15.62;52.69;97617.69;5062380;28;19924;-88
2024/03/15 12:12:48;;;;;;;;;;;;;;;15.67;52.78;97619.41;5060753;28;19930;-86
2024/03/15 12:15:29;;;;;;;;;;;;;;;15.73;52.08;97623.47;5057975;28;19951;-85
2024/03/15 12:17:57;;;;;;;;;;;;;;;15.75;52.10;97625.84;5058276;28;20022;-85
2024/03/15 12:20:26;;;;;;;;;;;;;;;15.76;51.23;97620.00;5061326;28;20035;-84
2024/03/15 12:22:54;;;;;;;;;;;;;;;15.78;51.21;97620.47;5062020;28;19934;-87
2024/03/15 12:25:22;;;;;;;;;;;;;;;15.83;51.15;97616.69;5083840;28;19981;-85
2024/03/15 12:31:30;;;;;;;;;;;;;;;15.89;50.71;97599.63;5094624;28;19920;-87
2024/03/15 12:33:57;;;;;;;;;;;;;;;15.90;50.25;97606.69;5064757;28;19928;-87
2024/03/15 12:36:26;;;;;;;;;;;;;;;15.88;50.74;97608.19;5078566;28;19919;-87
2024/03/15 12:38:54;;;;;;;;;;;;;;;15.83;50.66;97598.28;5082989;28;19935;-87
2024/03/15 12:41:23;;;;;;;;;;;;;;;15.73;50.33;97608.97;5061114;28;20360;-86
2024/03/15 12:43:51;;;;;;;;;;;;;;;15.69;50.31;97601.47;5061770;28;19974;-87
2024/03/15 12:46:19;;;;;;;;;;;;;;;15.63;50.81;97605.59;5059410;28;19924;-87
2024/03/15 12:48:47;;;;;;;;;;;;;;;15.59;50.93;97601.94;5059838;28;19935;-87
2024/03/15 12:51:25;;;;;;;;;;;;;;;15.58;51.04;97597.63;5062041;28;20344;-88
2024/03/15 12:53:55;;;;;;;;;;;;;;;15.53;51.61;97602.56;5076881;28;19931;-87
2024/03/15 12:56:24;;;;;;;;;;;;;;;15.45;51.87;97599.63;5063431;28;19924;-87
2024/03/15 12:58:52;;;;;;;;;;;;;;;15.41;52.31;97606.97;5045981;28;19931;-87
2024/03/15 13:01:20;;;;;;;;;;;;;;;15.39;52.95;97609.25;5070187;28;19931;-87
2024/03/15 13:03:48;;;;;;;;;;;;;;;15.33;53.21;97610.63;5042371;28;19956;-87
2024/03/15 13:06:16;;;;;;;;;;;;;;;15.24;53.07;97607.28;5058355;28;20046;-87